Valparaiso, Indiana
Current Conditions -  °F | °C
As of 1:56 PM on Friday 28 Nov 2014 (Local Time) from KVPZ Reporting Station
Broken Clouds Broken Clouds  
Wind Chill: 19°   Ceiling: 11000
Heat Index: 29°   Visibility: 10mi
Dew Point: 19°   Wind: 13mph
Humidity: 67%   Direction: 160°SSE
Pressure: 30.08"   Gusts: NA
Location:  41.47°N, 87.06°W
Report Text: KVPZ 281956Z AUTO 16011KT 10SM BKN110 M02/M07 A3008 RMK AO2 SLP197 T10171072 TSNO
Loading
Personal Weather Stations






























Interactive Weather Map New forecast layout! Learn more

10-Day Weather Forecast

Advertisements
Track Severe Weather on mobile